createdAt,value
2018-07-13T00:00:03.058Z,15.2
2018-07-13T00:15:02.435Z,15.2
2018-07-13T00:30:02.854Z,15.1
2018-07-13T00:45:03.208Z,15
2018-07-13T01:00:02.471Z,14.9
2018-07-13T01:15:02.796Z,14.9
2018-07-13T01:30:05.281Z,14.8
2018-07-13T01:45:02.892Z,14.8
2018-07-13T02:00:03.228Z,14.6
2018-07-13T02:15:02.567Z,14.6
2018-07-13T02:30:03.085Z,14.5
2018-07-13T02:45:02.428Z,14.4
2018-07-13T03:00:02.791Z,14.4
2018-07-13T03:15:03.102Z,14.3
2018-07-13T03:30:02.553Z,14.2
2018-07-13T03:45:02.868Z,14.2
2018-07-13T04:00:03.210Z,14.1
2018-07-13T04:15:02.466Z,14.1
2018-07-13T04:30:02.885Z,14
2018-07-13T04:45:03.207Z,13.9
2018-07-13T05:00:02.553Z,13.9
2018-07-13T05:15:02.858Z,13.9
2018-07-13T05:30:02.301Z,13.9
2018-07-13T05:45:02.594Z,13.8
2018-07-13T06:00:02.871Z,13.8
2018-07-13T06:15:03.231Z,13.8
2018-07-13T06:30:02.890Z,13.8
2018-07-13T06:45:03.229Z,13.8
2018-07-13T07:00:02.601Z,13.8
2018-07-13T07:15:02.890Z,13.9
2018-07-13T07:30:02.273Z,13.9
2018-07-13T07:45:02.582Z,13.9
2018-07-13T08:00:02.891Z,13.9
2018-07-13T08:15:03.228Z,14
2018-07-13T08:30:02.608Z,14.1
2018-07-13T08:45:02.880Z,14.1
2018-07-13T09:00:03.215Z,14.2
2018-07-13T09:15:02.547Z,14.2
2018-07-13T09:30:02.974Z,14.3
2018-07-13T09:45:02.287Z,14.4
2018-07-13T10:00:02.585Z,14.4
2018-07-13T10:15:02.889Z,14.5
2018-07-13T10:30:02.306Z,14.6
2018-07-13T10:45:02.598Z,14.7
2018-07-13T11:00:03.075Z,14.8
2018-07-13T11:15:02.363Z,14.9
2018-07-13T11:30:02.783Z,15
2018-07-13T11:45:03.105Z,15.1
2018-07-13T12:00:02.432Z,15.2
2018-07-13T12:15:02.766Z,15.3
2018-07-13T12:30:03.218Z,15.4
2018-07-13T12:45:02.579Z,15.4
2018-07-13T13:00:02.893Z,15.6
2018-07-13T13:15:03.208Z,15.6
2018-07-13T13:30:02.639Z,15.6
2018-07-13T13:45:02.975Z,15.6
2018-07-13T14:00:02.285Z,15.7
2018-07-13T14:15:02.604Z,15.8
2018-07-13T14:30:02.962Z,15.9
2018-07-13T14:45:02.387Z,16
2018-07-13T15:00:02.693Z,16.1
2018-07-13T15:15:02.983Z,16.2
2018-07-13T15:30:02.465Z,16.3
2018-07-13T15:45:02.770Z,16.4
2018-07-13T16:00:03.100Z,16.4
2018-07-13T16:15:02.479Z,16.4
2018-07-13T16:30:02.866Z,16.5
2018-07-13T16:45:03.256Z,16.6
2018-07-13T17:00:02.596Z,16.6
2018-07-13T17:15:02.874Z,16.6
2018-07-13T17:30:02.287Z,16.6
2018-07-13T17:45:02.617Z,16.6
2018-07-13T18:00:02.951Z,16.6
2018-07-13T18:15:03.392Z,16.6
2018-07-13T18:30:02.865Z,16.6
2018-07-13T18:45:03.215Z,16.6
2018-07-13T19:00:02.535Z,16.6
2018-07-13T19:15:02.864Z,16.6
2018-07-13T19:30:03.295Z,16.6
2018-07-13T19:45:02.636Z,16.6
2018-07-13T20:00:02.987Z,16.6
2018-07-13T20:15:02.292Z,16.6
2018-07-13T20:30:02.661Z,16.6
2018-07-13T20:45:02.976Z,16.6
2018-07-13T21:00:02.265Z,16.6
2018-07-13T21:15:02.585Z,16.6
2018-07-13T21:30:03.012Z,16.6
2018-07-13T21:45:02.368Z,16.5
2018-07-13T22:00:02.663Z,16.5
2018-07-13T22:15:02.972Z,16.5
2018-07-13T22:30:02.360Z,16.4
2018-07-13T22:45:02.692Z,16.4
2018-07-13T23:00:03.112Z,16.4
2018-07-13T23:15:02.472Z,16.3
2018-07-13T23:30:02.862Z,16.2
2018-07-13T23:45:03.206Z,16.2
